Time;durP1;ratioP1;P1;durP2;ratioP2;P2;SDS_P1;SDS_P2;PMS_P1;PMS_P2;Temp;Humidity;BMP_temperature;BMP_pressure;BME280_temperature;BME280_humidity;BME280_pressure;Samples;Min_cycle;Max_cycle;Signal;HPM_P1;HPM_P2
2021/01/20 00:01:02;;;;;;;6.47;4.72;;;;;;;2.04;89.73;99574.08;1733747;81;22306;-79
2021/01/20 00:03:29;;;;;;;6.10;4.87;;;;;;;2.06;89.75;99570.82;1721230;81;21683;-78
2021/01/20 00:05:55;;;;;;;6.05;5.03;;;;;;;2.07;89.77;99569.86;1732702;82;21208;-78
2021/01/20 00:08:22;;;;;;;5.92;4.87;;;;;;;2.09;89.77;99574.48;1741143;81;22200;-78
2021/01/20 00:10:48;;;;;;;7.20;5.20;;;;;;;2.10;89.78;99577.47;1750138;81;21410;-77
2021/01/20 00:13:17;;;;;;;7.03;5.17;;;;;;;2.11;89.82;99576.99;1755439;81;21224;-78
2021/01/20 00:15:44;;;;;;;3.53;2.97;;;;;;;2.14;89.81;99583.29;1731201;82;21733;-78
2021/01/20 00:18:10;;;;;;;7.03;5.00;;;;;;;2.16;89.85;99580.03;1735762;82;21147;-78
2021/01/20 00:20:36;;;;;;;5.62;3.85;;;;;;;2.17;89.86;99583.84;1707329;83;21222;-78
2021/01/20 00:23:05;;;;;;;5.45;3.92;;;;;;;2.20;89.88;99578.31;1702318;84;21203;-78
2021/01/20 00:25:31;;;;;;;7.33;5.05;;;;;;;2.24;89.89;99583.65;1704382;83;21178;-78
2021/01/20 00:27:58;;;;;;;8.60;4.50;;;;;;;2.25;89.90;99576.08;1717445;83;21771;-78
2021/01/20 00:30:24;;;;;;;5.08;3.95;;;;;;;2.27;89.91;99582.05;1723608;83;21195;-78
2021/01/20 00:32:51;;;;;;;7.15;4.55;;;;;;;2.31;89.94;99576.03;1723651;82;21227;-78
2021/01/20 00:35:21;;;;;;;6.83;4.50;;;;;;;2.32;89.96;99582.45;1736681;82;21143;-78
2021/01/20 00:37:47;;;;;;;6.55;4.42;;;;;;;2.31;89.96;99576.03;1736593;82;21191;-79
2021/01/20 00:40:14;;;;;;;8.00;4.75;;;;;;;2.30;89.97;99577.83;1736891;81;21690;-78
2021/01/20 00:42:40;;;;;;;4.92;4.30;;;;;;;2.32;89.99;99577.19;1735166;82;21191;-78
2021/01/20 00:45:08;;;;;;;7.45;4.40;;;;;;;2.37;90.00;99580.73;1708687;83;21245;-79
2021/01/20 00:47:34;;;;;;;5.33;3.87;;;;;;;2.38;90.03;99577.98;1723925;83;21171;-78
2021/01/20 00:50:00;;;;;;;4.25;3.80;;;;;;;2.41;90.02;99582.96;1723848;83;21175;-79
2021/01/20 00:52:27;;;;;;;5.80;3.80;;;;;;;2.44;90.04;99574.79;1724672;83;21195;-78
2021/01/20 00:54:53;;;;;;;5.55;4.05;;;;;;;2.45;90.06;99572.52;1724321;83;21131;-78
2021/01/20 00:57:19;;;;;;;5.72;4.28;;;;;;;2.47;90.07;99570.56;1724516;82;22055;-78
2021/01/20 00:59:46;;;;;;;6.20;4.33;;;;;;;2.51;90.09;99577.21;1724454;82;21143;-78
2021/01/20 01:02:12;;;;;;;5.92;4.60;;;;;;;2.53;90.11;99573.63;1724465;83;21600;-78
2021/01/20 01:04:39;;;;;;;5.87;4.17;;;;;;;2.57;90.11;99575.81;1724342;83;21539;-79
2021/01/20 01:07:05;;;;;;;6.92;4.75;;;;;;;2.58;90.13;99575.33;1698003;83;21156;-79
2021/01/20 01:09:34;;;;;;;5.85;4.40;;;;;;;2.62;90.13;99574.09;1724612;82;21476;-79
2021/01/20 01:12:00;;;;;;;4.90;3.45;;;;;;;2.66;90.14;99574.16;1724142;83;21210;-78
2021/01/20 01:14:26;;;;;;;7.25;4.22;;;;;;;2.67;90.16;99565.30;1679521;85;21147;-78
2021/01/20 01:16:53;;;;;;;6.42;5.28;;;;;;;2.70;90.18;99567.17;1724057;83;21123;-78
2021/01/20 01:19:19;;;;;;;9.38;5.33;;;;;;;2.71;90.20;99567.48;1676943;84;21262;-78
2021/01/20 01:21:45;;;;;;;4.72;4.10;;;;;;;2.71;90.22;99558.79;1676129;85;21147;-78
2021/01/20 01:24:12;;;;;;;6.78;4.53;;;;;;;2.74;90.23;99565.08;1676117;85;21191;-78
2021/01/20 01:26:38;;;;;;;5.22;4.00;;;;;;;2.75;90.26;99568.88;1676207;85;21219;-78
2021/01/20 01:29:05;;;;;;;8.48;4.78;;;;;;;2.78;90.24;99575.68;1676067;85;21122;-78
2021/01/20 01:31:31;;;;;;;7.12;4.58;;;;;;;2.79;90.27;99564.16;1676322;85;21234;-78
2021/01/20 01:33:58;;;;;;;7.22;4.80;;;;;;;2.81;90.28;99562.23;1676049;85;22148;-78
2021/01/20 01:36:25;;;;;;;5.37;4.10;;;;;;;2.84;90.30;99567.21;1676143;85;21246;-78
2021/01/20 01:38:51;;;;;;;5.78;4.58;;;;;;;2.86;90.30;99566.57;1676225;85;21179;-78
2021/01/20 01:41:18;;;;;;;7.80;5.53;;;;;;;2.88;90.33;99571.23;1676062;85;21222;-78
2021/01/20 01:43:44;;;;;;;7.78;4.65;;;;;;;2.90;90.34;99571.91;1650855;85;21580;-78
2021/01/20 01:46:10;;;;;;;8.95;5.80;;;;;;;2.90;90.33;99574.53;1675983;85;21250;-78
2021/01/20 01:48:37;;;;;;;7.67;4.47;;;;;;;2.92;90.36;99575.24;1676153;85;21198;-78
2021/01/20 01:51:03;;;;;;;7.72;5.25;;;;;;;2.91;90.37;99576.20;1675455;85;21218;-78
2021/01/20 01:53:30;;;;;;;7.10;4.95;;;;;;;2.93;90.37;99576.88;1676270;85;21582;-78
2021/01/20 01:55:56;;;;;;;7.00;5.15;;;;;;;2.93;90.38;99580.35;1676174;85;21154;-78
2021/01/20 01:58:22;;;;;;;5.05;4.50;;;;;;;2.94;90.40;99581.19;1676211;85;21196;-78
2021/01/20 02:00:49;;;;;;;7.08;5.37;;;;;;;2.95;90.43;99585.49;1676151;85;21174;-78
2021/01/20 02:03:15;;;;;;;7.30;5.45;;;;;;;2.96;90.41;99584.50;1675792;85;21191;-78
2021/01/20 02:05:41;;;;;;;8.75;5.42;;;;;;;2.97;90.42;99587.48;1676019;85;21194;-79
2021/01/20 02:08:07;;;;;;;6.65;6.05;;;;;;;2.96;90.43;99589.76;1676032;85;21171;-78
2021/01/20 02:10:34;;;;;;;8.73;5.33;;;;;;;2.95;90.45;99587.64;1676398;85;21211;-78
2021/01/20 02:13:27;;;;;;;7.03;4.75;;;;;;;2.95;90.47;99593.39;1675953;85;21182;-78
2021/01/20 02:16:06;;;;;;;7.62;4.85;;;;;;;2.95;90.45;99596.02;1676026;84;21182;-78
2021/01/20 02:18:33;;;;;;;5.08;4.25;;;;;;;2.91;90.46;99590.20;1676204;84;21567;-78
2021/01/20 02:21:35;;;;;;;8.48;5.78;;;;;;;2.94;90.46;99594.35;1676142;85;21186;-78
2021/01/20 02:24:04;;;;;;;7.12;4.90;;;;;;;2.96;90.47;99595.03;1676147;85;21254;-78
2021/01/20 02:27:06;;;;;;;6.55;4.85;;;;;;;2.98;90.46;99588.67;1675857;85;21166;-78
2021/01/20 02:30:05;;;;;;;7.65;5.50;;;;;;;3.00;90.47;99595.09;1675508;85;21190;-78
2021/01/20 02:32:32;;;;;;;8.23;5.35;;;;;;;2.98;90.46;99597.05;1674125;85;21214;-78
2021/01/20 02:34:58;;;;;;;6.85;5.37;;;;;;;2.97;90.49;99594.06;1676167;85;21163;-78
2021/01/20 02:37:24;;;;;;;5.65;4.40;;;;;;;2.96;90.47;99593.71;1675830;85;21916;-78
2021/01/20 02:39:51;;;;;;;6.72;4.62;;;;;;;3.00;90.47;99599.05;1676104;85;21198;-78
2021/01/20 02:42:17;;;;;;;6.53;4.83;;;;;;;3.01;90.46;99604.19;1675806;85;21219;-78
2021/01/20 02:44:44;;;;;;;5.53;4.28;;;;;;;3.03;90.48;99603.55;1676101;85;21135;-77
2021/01/20 02:47:10;;;;;;;6.85;4.90;;;;;;;3.04;90.48;99605.70;1675804;85;21564;-78
2021/01/20 02:49:38;;;;;;;5.90;4.15;;;;;;;3.03;90.48;99611.92;1676187;85;21197;-78
2021/01/20 02:52:48;;;;;;;7.47;5.42;;;;;;;3.01;90.49;99604.19;1675422;85;21151;-77
2021/01/20 02:55:17;;;;;;;5.00;4.50;;;;;;;3.01;90.48;99602.03;1675442;85;21162;-77
2021/01/20 02:57:44;;;;;;;5.78;4.17;;;;;;;3.03;90.47;99605.34;1676232;85;21231;-78
2021/01/20 03:00:11;;;;;;;7.05;4.30;;;;;;;3.06;90.47;99609.04;1676211;85;21139;-77
2021/01/20 03:02:37;;;;;;;6.50;5.08;;;;;;;3.07;90.47;99609.36;1676175;85;21208;-77
2021/01/20 03:05:05;;;;;;;5.25;4.50;;;;;;;3.06;90.47;99606.41;1675871;85;21624;-77
2021/01/20 03:07:31;;;;;;;5.53;4.42;;;;;;;3.06;90.49;99609.04;1676010;85;21690;-78
2021/01/20 03:09:57;;;;;;;8.30;5.97;;;;;;;3.08;90.48;99608.39;1676082;85;21242;-77
2021/01/20 03:12:30;;;;;;;6.87;5.37;;;;;;;3.07;90.46;99605.41;1652503;85;21647;-77
2021/01/20 03:14:59;;;;;;;11.35;6.20;;;;;;;3.05;90.47;99612.64;1650683;85;21258;-77
2021/01/20 03:17:27;;;;;;;5.62;4.60;;;;;;;3.05;90.46;99613.95;1675546;85;21162;-78
2021/01/20 03:19:53;;;;;;;5.42;4.25;;;;;;;3.06;90.45;99614.30;1694957;84;21179;-77
2021/01/20 03:22:19;;;;;;;5.58;4.40;;;;;;;3.07;90.46;99623.84;1712056;82;21135;-78
2021/01/20 03:24:46;;;;;;;9.70;5.67;;;;;;;3.05;90.46;99613.95;1712739;83;21151;-77
2021/01/20 03:27:12;;;;;;;4.17;3.62;;;;;;;3.03;90.47;99614.56;1712571;83;21178;-77
2021/01/20 03:29:38;;;;;;;8.83;4.28;;;;;;;3.03;90.48;99620.34;1712581;83;21193;-78
2021/01/20 03:32:05;;;;;;;5.08;4.42;;;;;;;3.01;90.47;99611.25;1712327;82;21568;-77
2021/01/20 03:34:31;;;;;;;7.05;4.97;;;;;;;3.01;90.46;99615.20;1712227;83;21226;-77
2021/01/20 03:36:58;;;;;;;5.22;4.45;;;;;;;2.97;90.46;99615.13;1712800;83;21607;-77
2021/01/20 03:39:25;;;;;;;7.25;6.12;;;;;;;2.93;90.46;99614.58;1711853;83;21253;-77
2021/01/20 03:41:51;;;;;;;4.90;4.10;;;;;;;2.93;90.46;99619.84;1712187;82;21222;-77
2021/01/20 03:44:17;;;;;;;5.83;4.00;;;;;;;2.93;90.45;99616.38;1712686;83;21205;-77
2021/01/20 03:46:44;;;;;;;5.78;4.33;;;;;;;2.91;90.44;99615.70;1712417;83;21202;-77
2021/01/20 03:49:10;;;;;;;5.17;3.33;;;;;;;2.85;90.45;99615.76;1712709;83;21141;-77
2021/01/20 03:51:36;;;;;;;3.70;3.02;;;;;;;2.83;90.46;99623.47;1712530;83;21321;-77
2021/01/20 03:54:03;;;;;;;5.85;3.58;;;;;;;2.80;90.45;99625.06;1712529;82;21174;-77
2021/01/20 03:56:29;;;;;;;5.08;3.62;;;;;;;2.78;90.46;99627.02;1712357;83;21170;-77
2021/01/20 03:58:56;;;;;;;6.10;3.85;;;;;;;2.75;90.43;99620.69;1712645;83;21574;-77
2021/01/20 04:01:22;;;;;;;7.22;4.25;;;;;;;2.72;90.45;99623.60;1712234;83;21162;-77
2021/01/20 04:03:48;;;;;;;5.72;4.00;;;;;;;2.67;90.45;99616.62;1712508;82;22314;-77
2021/01/20 04:06:15;;;;;;;5.58;4.10;;;;;;;2.65;90.46;99622.50;1712572;83;21158;-77
2021/01/20 04:08:41;;;;;;;5.95;4.45;;;;;;;2.64;90.45;99619.54;1712450;83;21169;-77
2021/01/20 04:11:08;;;;;;;3.80;3.22;;;;;;;2.64;90.45;99614.28;1712355;82;21146;-77
2021/01/20 04:13:37;;;;;;;4.83;3.08;;;;;;;2.63;90.44;99619.19;1712408;83;21170;-77
2021/01/20 04:16:04;;;;;;;4.40;3.15;;;;;;;2.59;90.44;99609.90;1712841;83;21190;-77
2021/01/20 04:18:31;;;;;;;4.60;2.98;;;;;;;2.56;90.45;99610.18;1708295;83;21624;-77
2021/01/20 04:20:57;;;;;;;4.20;3.25;;;;;;;2.53;90.46;99606.52;1730275;82;21127;-77
2021/01/20 04:23:23;;;;;;;5.10;3.42;;;;;;;2.53;90.45;99613.09;1730102;82;21604;-77
2021/01/20 04:25:49;;;;;;;4.65;3.50;;;;;;;2.51;90.45;99611.42;1730180;81;21190;-77
2021/01/20 04:28:16;;;;;;;4.20;3.62;;;;;;;2.52;90.45;99609.63;1730133;82;21565;-77
2021/01/20 04:30:42;;;;;;;4.83;3.90;;;;;;;2.50;90.45;99607.12;1729956;82;21191;-77
2021/01/20 04:33:08;;;;;;;4.22;3.05;;;;;;;2.50;90.45;99611.06;1730207;82;21156;-77
2021/01/20 04:35:35;;;;;;;4.90;3.40;;;;;;;2.51;90.46;99619.31;1730061;82;21560;-77
2021/01/20 04:38:01;;;;;;;3.83;2.95;;;;;;;2.55;90.45;99619.03;1730193;82;21215;-77
2021/01/20 04:40:28;;;;;;;5.95;3.35;;;;;;;2.57;90.46;99613.17;1729879;82;22178;-77
2021/01/20 04:42:55;;;;;;;5.03;3.37;;;;;;;2.60;90.44;99612.89;1730015;82;21207;-77
2021/01/20 04:45:22;;;;;;;5.85;3.30;;;;;;;2.59;90.44;99606.78;1729934;82;21599;-77
2021/01/20 04:47:51;;;;;;;4.42;3.10;;;;;;;2.59;90.44;99605.47;1730148;82;21191;-77
2021/01/20 04:50:18;;;;;;;6.47;4.25;;;;;;;2.63;90.46;99608.66;1730309;82;21195;-77
2021/01/20 04:52:46;;;;;;;6.55;4.95;;;;;;;2.66;90.45;99609.69;1730050;82;21201;-77
2021/01/20 04:55:14;;;;;;;4.65;3.47;;;;;;;2.64;90.45;99600.60;1730136;82;21198;-77
2021/01/20 04:57:41;;;;;;;8.05;5.53;;;;;;;2.63;90.45;99604.70;1730214;82;22023;-77
2021/01/20 05:00:08;;;;;;;6.55;5.58;;;;;;;2.60;90.43;99611.09;1729900;82;21242;-77
2021/01/20 05:02:35;;;;;;;5.33;4.40;;;;;;;2.60;90.44;99612.41;1729667;82;21579;-77
2021/01/20 05:05:03;;;;;;;4.62;3.40;;;;;;;2.62;90.44;99612.25;1730141;82;21985;-77
2021/01/20 05:10:39;;;;;;;;;;;;;;;2.64;90.43;99599.80;1654980;85;21536;-77
2021/01/20 05:13:27;;;;;;;3.85;2.90;;;;;;;2.68;90.42;99598.52;1653293;85;20276;-77
2021/01/20 05:15:54;;;;;;;4.33;3.15;;;;;;;2.70;90.43;99592.17;1632555;86;21218;-77
2021/01/20 05:18:21;;;;;;;6.72;3.15;;;;;;;2.74;90.42;99597.98;1653128;86;22233;-77
2021/01/20 05:20:47;;;;;;;5.40;3.83;;;;;;;2.78;90.42;99594.11;1652736;86;21233;-77
2021/01/20 05:23:13;;;;;;;4.20;3.05;;;;;;;2.82;90.41;99596.78;1653250;86;21195;-77
2021/01/20 05:25:47;;;;;;;3.70;3.12;;;;;;;2.84;90.42;99602.75;1653189;86;21205;-77
2021/01/20 05:28:20;;;;;;;2.85;2.50;;;;;;;2.87;90.39;99603.78;1652908;85;21170;-77
2021/01/20 05:30:55;;;;;;;4.60;3.72;;;;;;;2.90;90.38;99595.60;1653235;86;22353;-77
2021/01/20 05:33:26;;;;;;;9.50;5.75;;;;;;;2.91;90.39;99597.27;1653207;86;21687;-77
2021/01/20 05:36:10;;;;;;;4.58;2.98;;;;;;;2.91;90.37;99594.64;1653111;86;21241;-78
2021/01/20 05:38:43;;;;;;;7.30;4.70;;;;;;;2.95;90.38;99596.02;1653297;86;21186;-78
2021/01/20 05:41:23;;;;;;;8.28;4.33;;;;;;;2.97;90.35;99600.17;1653305;86;21186;-77
2021/01/20 05:43:55;;;;;;;;;;;;;;;2.98;90.33;99595.25;1655757;86;21284;-77
2021/01/20 05:46:35;;;;;;;7.72;4.35;;;;;;;2.96;90.34;99593.23;1650143;85;20297;-77
2021/01/20 05:49:01;;;;;;;5.15;3.17;;;;;;;2.92;90.33;99593.67;1653046;86;22436;-77
2021/01/20 05:51:42;;;;;;;4.12;3.12;;;;;;;2.87;90.32;99594.09;1653070;86;21185;-77
2021/01/20 05:54:09;;;;;;;5.03;3.52;;;;;;;2.88;90.32;99595.76;1652944;86;21194;-78
2021/01/20 05:56:35;;;;;;;8.33;2.85;;;;;;;2.89;90.30;99605.78;1628361;86;21222;-77
2021/01/20 05:59:09;;;;;;;4.72;3.02;;;;;;;2.87;90.29;99603.78;1652579;86;21226;-78
2021/01/20 06:01:31;;;;;;;6.03;3.77;;;;;;;2.87;90.28;99602.47;1652115;85;21666;-78
2021/01/20 06:03:58;;;;;;;7.00;5.80;;;;;;;2.89;90.28;99604.46;1653173;86;21142;-78
2021/01/20 06:06:24;;;;;;;6.87;4.33;;;;;;;2.89;90.28;99612.36;1628361;86;21202;-78
2021/01/20 06:08:51;;;;;;;6.53;4.08;;;;;;;2.84;90.24;99603.59;1659685;84;21694;-78
2021/01/20 06:11:17;;;;;;;8.35;5.50;;;;;;;2.83;90.25;99608.98;1677666;84;21196;-78
2021/01/20 06:13:43;;;;;;;7.58;5.08;;;;;;;2.78;90.23;99602.01;1677659;84;21684;-78
2021/01/20 06:16:16;;;;;;;6.70;4.72;;;;;;;2.72;90.23;99613.91;1677367;85;21191;-78
2021/01/20 06:18:55;;;;;;;7.10;4.40;;;;;;;2.68;90.22;99609.05;1677772;85;21549;-78
2021/01/20 06:21:35;;;;;;;7.95;4.92;;;;;;;2.69;90.23;99599.72;1810889;77;22239;-78
2021/01/20 06:24:13;;;;;;;8.78;4.65;;;;;;;2.64;90.21;99599.80;1796822;79;21167;-78
2021/01/20 06:26:55;;;;;;;5.87;4.37;;;;;;;2.64;90.20;99611.13;1796407;79;21532;-78
2021/01/20 06:29:24;;;;;;;7.47;4.62;;;;;;;2.63;90.19;99606.02;1796549;79;21662;-78
2021/01/20 06:31:50;;;;;;;9.07;5.40;;;;;;;2.64;90.15;99602.43;1796946;79;21029;-77
2021/01/20 06:34:17;;;;;;;7.47;5.22;;;;;;;2.67;90.13;99596.88;1796740;79;21151;-78
2021/01/20 06:36:43;;;;;;;9.93;5.72;;;;;;;2.72;90.11;99602.55;1796769;79;21056;-78
2021/01/20 06:39:30;;;;;;;8.70;6.00;;;;;;;2.72;90.11;99602.55;1796635;79;21202;-78
2021/01/20 06:41:59;;;;;;;9.65;6.55;;;;;;;2.72;90.09;99600.75;1726114;82;21140;-77
2021/01/20 06:44:25;;;;;;;9.55;6.72;;;;;;;2.71;90.08;99603.53;1776507;79;21134;-78
2021/01/20 06:47:01;;;;;;;11.03;7.20;;;;;;;2.69;90.07;99594.93;1796775;79;21183;-78
2021/01/20 06:49:30;;;;;;;11.60;8.38;;;;;;;2.68;90.04;99591.94;1796601;79;21143;-78
2021/01/20 06:52:15;;;;;;;8.95;6.40;;;;;;;2.67;90.05;99596.88;1796330;79;21123;-77
2021/01/20 06:54:46;;;;;;;8.28;5.95;;;;;;;2.68;90.03;99591.94;1796767;79;21152;-77
2021/01/20 06:57:32;;;;;;;8.23;6.20;;;;;;;2.69;90.01;99593.61;1796580;79;21159;-77
2021/01/20 07:00:15;;;;;;;10.30;6.17;;;;;;;2.72;90.01;99594.64;1796512;79;21172;-77
2021/01/20 07:03:03;;;;;;;8.88;5.58;;;;;;;2.73;89.98;99598.95;1796807;79;21210;-77
2021/01/20 07:05:40;;;;;;;10.43;5.47;;;;;;;2.75;89.96;99596.52;1796459;79;21160;-79
2021/01/20 07:08:09;;;;;;;26.70;13.62;;;;;;;2.79;89.93;99598.38;1796645;79;21195;-78
2021/01/20 07:11:02;;;;;;;11.97;7.45;;;;;;;2.82;89.91;99595.47;1794601;78;21225;-78
2021/01/20 07:13:36;;;;;;;8.23;5.60;;;;;;;2.84;89.91;99593.54;1794376;79;21179;-78
2021/01/20 07:16:06;;;;;;;13.43;8.38;;;;;;;2.84;89.89;99591.74;1794774;80;21159;-78
2021/01/20 07:18:32;;;;;;;14.15;8.90;;;;;;;2.84;89.88;99590.91;1793830;80;21227;-78
2021/01/20 07:20:59;;;;;;;9.45;6.47;;;;;;;2.83;89.87;99587.92;1792844;80;21549;-78
2021/01/20 07:23:25;;;;;;;17.95;7.33;;;;;;;2.83;89.86;99589.23;1792078;80;21116;-78
2021/01/20 07:25:53;;;;;;;13.98;7.62;;;;;;;2.82;89.86;99588.41;1792076;80;21782;-78
2021/01/20 07:28:20;;;;;;;15.15;8.15;;;;;;;2.81;89.82;99588.56;1792036;80;21600;-78
2021/01/20 07:30:46;;;;;;;18.80;7.65;;;;;;;2.81;89.80;99595.14;1792119;80;21205;-78
2021/01/20 07:33:23;;;;;;;16.62;8.68;;;;;;;2.80;89.78;99594.78;1791597;80;21662;-78
2021/01/20 07:35:49;;;;;;;19.87;10.28;;;;;;;2.82;89.77;99597.62;1791514;80;21163;-78
2021/01/20 07:38:16;;;;;;;18.17;10.58;;;;;;;2.85;89.74;99593.89;1792505;80;21143;-78
2021/01/20 07:40:43;;;;;;;18.05;9.55;;;;;;;2.87;89.73;99599.36;1792054;79;21179;-78
2021/01/20 07:43:22;;;;;;;16.50;10.53;;;;;;;2.91;89.70;99598.59;1791955;80;21243;-78
2021/01/20 07:45:51;;;;;;;16.32;10.93;;;;;;;2.93;89.72;99592.69;1794796;79;21135;-78
2021/01/20 07:48:28;;;;;;;13.35;7.15;;;;;;;2.96;89.69;99596.34;1794646;80;21167;-78
2021/01/20 07:50:55;;;;;;;21.97;9.90;;;;;;;2.97;89.67;99595.38;1767181;80;21616;-78
2021/01/20 07:53:21;;;;;;;64.12;29.37;;;;;;;2.98;89.65;99593.94;1727897;81;21155;-79
2021/01/20 07:55:54;;;;;;;90.25;45.98;;;;;;;2.99;89.66;99594.26;1753889;80;22059;-78
2021/01/20 07:58:28;;;;;;;49.45;24.82;;;;;;;3.00;89.62;99599.05;1740545;82;21156;-77
2021/01/20 08:00:54;;;;;;;27.77;13.10;;;;;;;3.00;89.61;99599.05;1696573;83;21622;-77
2021/01/20 08:03:34;;;;;;;28.40;12.00;;;;;;;3.01;89.61;99601.55;1755133;81;21188;-77
2021/01/20 08:06:02;;;;;;;24.82;11.70;;;;;;;3.03;89.58;99594.00;1768996;81;21172;-79
2021/01/20 08:08:28;;;;;;;53.48;22.00;;;;;;;3.05;89.57;99591.56;1765623;81;22165;-78
2021/01/20 08:10:57;;;;;;;31.30;15.48;;;;;;;3.09;89.54;99595.58;1763460;80;21159;-78
2021/01/20 08:13:24;;;;;;;18.60;11.43;;;;;;;3.13;89.51;99596.13;1759645;81;21122;-78
2021/01/20 08:15:50;;;;;;;21.68;13.25;;;;;;;3.15;89.49;99589.73;1729461;82;21159;-78
2021/01/20 08:18:17;;;;;;;29.65;16.67;;;;;;;3.19;89.48;99587.16;1742406;81;21480;-78
2021/01/20 08:20:43;;;;;;;32.35;18.00;;;;;;;3.23;89.45;99589.03;1755400;81;21643;-79
2021/01/20 08:23:51;;;;;;;21.68;13.83;;;;;;;3.22;89.43;99583.41;1786004;80;21172;-78
2021/01/20 08:26:24;;;;;;;20.52;11.40;;;;;;;3.23;89.41;99583.76;1749193;82;22060;-78
2021/01/20 08:29:12;;;;;;;19.35;10.72;;;;;;;3.24;89.38;99580.95;1745203;80;21144;-78
2021/01/20 08:31:42;;;;;;;20.68;11.70;;;;;;;3.25;89.36;99574.73;1773668;80;21560;-78
2021/01/20 08:34:22;;;;;;;;;;;;;;;3.29;89.35;99585.33;1757577;80;21315;-79
2021/01/20 08:36:55;;;;;;;14.30;10.55;;;;;;;3.32;89.32;99586.35;1738575;82;20237;-79
2021/01/20 08:39:22;;;;;;;14.47;6.97;;;;;;;3.37;89.29;99586.77;1690644;84;21799;-79
2021/01/20 08:42:22;;;;;;;9.78;6.00;;;;;;;3.49;89.27;99590.03;1780012;80;21140;-79
2021/01/20 08:45:15;;;;;;;14.00;6.05;;;;;;;3.59;89.26;99588.69;1718988;83;21148;-79
2021/01/20 08:48:05;;;;;;;11.35;7.20;;;;;;;3.71;89.19;99598.06;1775973;80;22644;-78
2021/01/20 08:50:35;;;;;;;11.20;6.62;;;;;;;3.85;89.17;99597.57;1770695;80;21171;-79
2021/01/20 08:53:09;;;;;;;17.25;9.13;;;;;;;3.93;89.12;99587.13;1785310;80;21195;-78
2021/01/20 08:55:41;;;;;;;15.23;6.97;;;;;;;4.00;89.08;99594.79;1756540;79;21191;-79
2021/01/20 08:58:31;;;;;;;11.53;5.28;;;;;;;4.08;89.06;99588.78;1720533;83;21147;-79
2021/01/20 09:01:03;;;;;;;19.32;8.38;;;;;;;4.14;89.01;99586.38;1725085;83;21232;-79
2021/01/20 09:03:32;;;;;;;13.58;6.92;;;;;;;4.22;88.96;99593.03;1744106;81;21136;-79
2021/01/20 09:06:00;;;;;;;23.85;10.08;;;;;;;4.29;88.91;99598.57;1753030;80;21384;-79
2021/01/20 09:08:46;;;;;;;17.02;7.53;;;;;;;4.36;88.89;99595.16;1774935;79;21195;-79
2021/01/20 09:11:12;;;;;;;16.57;7.55;;;;;;;4.44;88.81;99600.52;1790410;78;21143;-79
2021/01/20 09:13:41;;;;;;;21.00;11.28;;;;;;;4.52;88.75;99600.61;1766408;78;21644;-78
2021/01/20 09:16:08;;;;;;;17.17;10.75;;;;;;;4.60;88.68;99602.98;1777699;80;21160;-78
2021/01/20 09:18:35;;;;;;;18.12;8.78;;;;;;;4.68;88.61;99601.23;1776829;80;21184;-79
2021/01/20 09:21:02;;;;;;;23.75;12.58;;;;;;;4.79;88.54;99590.91;1771327;80;21208;-78
2021/01/20 09:23:28;;;;;;;13.35;7.65;;;;;;;4.91;88.48;99591.03;1743216;80;21544;-79
2021/01/20 09:25:55;;;;;;;15.13;7.62;;;;;;;5.05;88.40;99593.11;1743100;82;21217;-79
2021/01/20 09:28:22;;;;;;;35.90;15.25;;;;;;;5.15;88.29;99593.84;1771548;80;21649;-80
2021/01/20 09:30:48;;;;;;;34.80;17.27;;;;;;;5.22;88.21;99586.11;1753163;80;21200;-79
2021/01/20 09:33:15;;;;;;;7.75;4.62;;;;;;;5.26;88.13;99593.58;1751562;80;21539;-79
2021/01/20 09:35:42;;;;;;;8.63;5.15;;;;;;;5.29;88.01;99591.95;1742818;82;21168;-79
2021/01/20 09:38:08;;;;;;;9.10;5.47;;;;;;;5.33;87.96;99585.85;1743013;82;21289;-78
2021/01/20 09:40:34;;;;;;;10.65;5.03;;;;;;;5.35;87.85;99588.67;1742412;82;21244;-78
2021/01/20 09:43:01;;;;;;;6.65;3.50;;;;;;;5.39;87.77;99583.41;1754718;80;21183;-77
2021/01/20 09:45:29;;;;;;;8.68;3.10;;;;;;;5.45;87.67;99588.06;1770654;80;21156;-77
2021/01/20 09:47:57;;;;;;;14.70;9.13;;;;;;;5.53;87.55;99584.14;1763977;80;21176;-77
2021/01/20 09:50:23;;;;;;;6.90;4.05;;;;;;;5.66;87.47;99586.86;1755336;80;22191;-78
2021/01/20 09:52:52;;;;;;;15.50;11.57;;;;;;;5.76;87.36;99594.18;1745835;80;21259;-78
2021/01/20 09:55:18;;;;;;;25.70;14.25;;;;;;;5.84;87.27;99586.28;1758658;80;21679;-78
2021/01/20 09:57:44;;;;;;;8.83;5.65;;;;;;;5.93;87.16;99581.37;1755480;81;21207;-78
2021/01/20 10:00:14;;;;;;;13.58;7.95;;;;;;;6.00;87.02;99586.36;1757934;80;21133;-78
2021/01/20 10:02:40;;;;;;;;;;;;;;;6.11;86.93;99586.56;1753800;80;21683;-77
2021/01/20 10:05:09;;;;;;;12.50;5.90;;;;;;;6.18;86.79;99579.14;1758658;80;20278;-77
2021/01/20 10:07:37;;;;;;;8.35;4.60;;;;;;;6.25;86.70;99570.88;1756166;81;21192;-77
2021/01/20 10:10:06;;;;;;;11.50;4.85;;;;;;;6.31;86.54;99582.14;1726230;80;21181;-77
2021/01/20 10:12:32;;;;;;;8.55;4.00;;;;;;;6.35;86.38;99587.44;1789046;80;22068;-77
2021/01/20 10:14:58;;;;;;;12.50;5.47;;;;;;;6.38;86.24;99579.17;1784665;80;21264;-77
2021/01/20 10:20:09;;;;;;;10.43;4.50;;;;;;;6.44;85.91;99581.16;1809351;78;22341;-77
2021/01/20 10:22:35;;;;;;;;;;;;;;;6.40;85.78;99571.88;1799293;79;21210;-76
2021/01/20 10:25:05;;;;;;;10.18;4.20;;;;;;;6.40;85.64;99574.52;1782602;80;22198;-79
2021/01/20 10:27:33;;;;;;;6.12;3.20;;;;;;;6.40;85.51;99579.82;1787467;80;21183;-79
2021/01/20 10:30:00;;;;;;;7.55;3.60;;;;;;;6.40;85.36;99571.88;1787480;80;21143;-78
2021/01/20 10:32:26;;;;;;;7.90;3.90;;;;;;;6.41;85.24;99568.73;1787338;80;21750;-78
2021/01/20 10:34:52;;;;;;;6.95;3.83;;;;;;;6.41;85.06;99568.24;1762507;80;21147;-78
2021/01/20 10:37:19;;;;;;;7.25;2.90;;;;;;;6.43;84.91;99568.93;1758448;81;22049;-77
2021/01/20 10:39:45;;;;;;;6.37;3.30;;;;;;;6.47;84.75;99558.83;1759138;80;21132;-78
2021/01/20 10:42:12;;;;;;;4.65;3.00;;;;;;;6.49;84.61;99566.94;1775972;79;21144;-78
2021/01/20 10:44:38;;;;;;;5.75;3.10;;;;;;;6.54;84.45;99568.58;1763398;81;21191;-78
2021/01/20 10:47:04;;;;;;;7.20;3.50;;;;;;;6.59;84.23;99560.64;1766481;80;21163;-78
2021/01/20 10:49:31;;;;;;;8.63;3.95;;;;;;;6.61;84.04;99554.70;1772802;80;21275;-78
2021/01/20 10:51:57;;;;;;;8.73;4.67;;;;;;;6.64;83.83;99559.66;1784317;80;21623;-78
2021/01/20 10:54:23;;;;;;;9.00;4.50;;;;;;;6.68;83.67;99563.64;1756160;81;21239;-78
2021/01/20 10:56:49;;;;;;;8.13;4.20;;;;;;;6.74;83.51;99557.67;1756813;80;21178;-79
2021/01/20 10:59:16;;;;;;;11.38;5.28;;;;;;;6.77;83.33;99567.94;1755659;81;21186;-78
2021/01/20 11:01:43;;;;;;;8.33;4.45;;;;;;;6.78;83.18;99562.48;1756536;81;21216;-78
2021/01/20 11:04:10;;;;;;;7.87;4.03;;;;;;;6.78;83.04;99559.00;1768536;80;21195;-77
2021/01/20 11:06:36;;;;;;;6.62;4.08;;;;;;;6.78;82.89;99559.83;1777806;80;21200;-77
2021/01/20 11:09:03;;;;;;;8.08;4.05;;;;;;;6.81;82.76;99561.31;1780168;80;21147;-79
2021/01/20 11:11:29;;;;;;;6.90;2.85;;;;;;;6.78;82.59;99549.23;1736000;81;21653;-79
2021/01/20 11:13:56;;;;;;;7.10;4.12;;;;;;;6.76;82.45;99557.00;1781391;80;22105;-79
2021/01/20 11:16:23;;;;;;;15.23;9.55;;;;;;;6.74;82.33;99559.83;1787422;80;21194;-79
2021/01/20 11:18:52;;;;;;;8.98;4.92;;;;;;;6.75;82.14;99561.98;1730966;82;21164;-79
2021/01/20 11:21:19;;;;;;;10.13;5.65;;;;;;;6.75;82.04;99559.34;1799003;79;21119;-79
2021/01/20 11:23:45;;;;;;;13.03;7.87;;;;;;;6.75;81.89;99561.98;1789461;79;21178;-79
2021/01/20 11:26:12;;;;;;;8.25;5.30;;;;;;;6.77;81.78;99563.96;1786452;79;21210;-79
2021/01/20 11:28:39;;;;;;;8.08;4.10;;;;;;;6.80;81.61;99558.33;1769866;79;21171;-80
2021/01/20 11:31:05;;;;;;;23.52;12.55;;;;;;;6.84;81.47;99559.16;1799051;79;21182;-79
2021/01/20 11:33:32;;;;;;;28.70;12.58;;;;;;;6.86;81.21;99555.83;1774980;79;21135;-80
2021/01/20 11:35:59;;;;;;;19.52;11.40;;;;;;;6.89;80.98;99560.00;1767349;80;21191;-79
2021/01/20 11:38:26;;;;;;;13.90;8.40;;;;;;;6.90;80.75;99558.98;1769477;79;21207;-79
2021/01/20 11:40:53;;;;;;;16.17;10.23;;;;;;;6.93;80.52;99549.39;1779895;79;21193;-80
2021/01/20 11:43:20;;;;;;;9.20;5.10;;;;;;;6.96;80.39;99557.01;1754057;81;21171;-79
2021/01/20 11:45:46;;;;;;;7.58;3.65;;;;;;;6.95;80.22;99547.39;1763479;81;21238;-79
2021/01/20 11:48:13;;;;;;;4.58;2.62;;;;;;;6.91;80.11;99550.87;1793924;79;21128;-80
2021/01/20 11:50:40;;;;;;;6.17;3.25;;;;;;;6.87;79.97;99547.39;1798381;79;21238;-79
2021/01/20 11:53:07;;;;;;;4.67;2.70;;;;;;;6.86;79.88;99543.11;1762834;81;21168;-80
2021/01/20 11:55:33;;;;;;;4.50;2.87;;;;;;;6.89;79.79;99524.22;1789771;79;21140;-79